createdAt,value
2023-10-09T00:01:19.056Z,100.00
2023-10-09T00:03:53.942Z,100.00
2023-10-09T00:06:33.712Z,100.00
2023-10-09T00:09:13.200Z,100.00
2023-10-09T00:11:46.029Z,100.00
2023-10-09T00:14:16.861Z,100.00
2023-10-09T00:16:57.424Z,100.00
2023-10-09T00:19:32.354Z,100.00
2023-10-09T00:22:05.843Z,100.00
2023-10-09T00:24:46.487Z,100.00
2023-10-09T00:27:17.731Z,100.00
2023-10-09T00:29:49.315Z,100.00
2023-10-09T00:32:27.558Z,100.00
2023-10-09T00:35:00.211Z,100.00
2023-10-09T00:37:35.433Z,100.00
2023-10-09T00:40:14.411Z,100.00
2023-10-09T00:42:44.642Z,100.00
2023-10-09T00:45:25.936Z,100.00
2023-10-09T00:48:04.143Z,100.00
2023-10-09T00:50:36.995Z,100.00
2023-10-09T00:53:13.754Z,100.00
2023-10-09T00:55:56.992Z,100.00
2023-10-09T00:58:32.239Z,100.00
2023-10-09T01:01:05.772Z,100.00
2023-10-09T01:03:41.758Z,100.00
2023-10-09T01:06:22.496Z,100.00
2023-10-09T01:09:10.522Z,100.00
2023-10-09T01:11:49.195Z,100.00
2023-10-09T01:14:22.535Z,100.00
2023-10-09T01:16:55.911Z,100.00
2023-10-09T01:19:29.432Z,100.00
2023-10-09T01:22:05.470Z,100.00
2023-10-09T01:24:40.170Z,100.00
2023-10-09T01:27:16.438Z,100.00
2023-10-09T01:29:48.199Z,100.00
2023-10-09T01:32:21.124Z,100.00
2023-10-09T01:34:52.678Z,100.00
2023-10-09T01:37:29.261Z,100.00
2023-10-09T01:40:23.298Z,100.00
2023-10-09T01:42:53.623Z,100.00
2023-10-09T01:45:31.377Z,100.00
2023-10-09T01:48:09.816Z,100.00
2023-10-09T01:50:43.603Z,100.00
2023-10-09T01:53:19.117Z,100.00
2023-10-09T01:55:56.849Z,100.00
2023-10-09T02:18:17.814Z,100.00
2023-10-09T02:20:49.440Z,100.00
2023-10-09T02:23:22.289Z,100.00
2023-10-09T02:25:54.772Z,100.00
2023-10-09T02:28:25.142Z,100.00
2023-10-09T02:31:01.989Z,100.00
2023-10-09T02:33:37.493Z,100.00
2023-10-09T02:36:08.526Z,100.00
2023-10-09T02:38:38.540Z,100.00
2023-10-09T02:41:21.253Z,100.00
2023-10-09T02:43:52.103Z,100.00
2023-10-09T02:46:30.456Z,100.00
2023-10-09T02:49:07.679Z,100.00
2023-10-09T02:51:43.280Z,100.00
2023-10-09T02:54:29.017Z,100.00
2023-10-09T02:57:08.045Z,100.00
2023-10-09T02:59:46.410Z,100.00
2023-10-09T03:02:16.774Z,100.00
2023-10-09T03:04:49.747Z,100.00
2023-10-09T03:07:19.983Z,100.00
2023-10-09T03:09:51.922Z,100.00
2023-10-09T03:12:23.201Z,100.00
2023-10-09T03:14:53.476Z,100.00
2023-10-09T03:17:24.435Z,100.00
2023-10-09T03:19:57.296Z,100.00
2023-10-09T03:22:27.989Z,100.00
2023-10-09T03:24:58.241Z,100.00
2023-10-09T03:27:29.892Z,100.00
2023-10-09T03:30:00.352Z,100.00
2023-10-09T03:32:30.644Z,100.00
2023-10-09T03:35:08.014Z,100.00
2023-10-09T03:37:40.625Z,100.00
2023-10-09T03:40:18.862Z,100.00
2023-10-09T03:42:49.940Z,100.00
2023-10-09T03:45:26.274Z,100.00
2023-10-09T03:48:12.681Z,100.00
2023-10-09T03:50:47.227Z,100.00
2023-10-09T03:53:18.178Z,100.00
2023-10-09T03:55:48.524Z,100.00
2023-10-09T03:58:20.317Z,100.00
2023-10-09T04:00:51.069Z,100.00
2023-10-09T04:03:22.164Z,100.00
2023-10-09T04:05:55.190Z,100.00
2023-10-09T04:08:30.556Z,100.00
2023-10-09T04:11:05.636Z,100.00
2023-10-09T04:13:41.518Z,100.00
2023-10-09T04:16:34.786Z,100.00
2023-10-09T04:19:12.800Z,100.00
2023-10-09T04:21:43.406Z,100.00
2023-10-09T04:24:24.121Z,100.00
2023-10-09T04:26:59.982Z,100.00
2023-10-09T04:29:38.926Z,100.00
2023-10-09T04:32:18.961Z,100.00
2023-10-09T04:35:12.447Z,100.00
2023-10-09T04:37:49.439Z,100.00
2023-10-09T04:40:40.025Z,100.00
2023-10-09T04:43:08.265Z,100.00
2023-10-09T04:45:53.056Z,100.00
2023-10-09T04:48:34.250Z,100.00
2023-10-09T04:51:17.116Z,100.00
2023-10-09T04:54:01.844Z,100.00
2023-10-09T04:56:34.864Z,100.00
2023-10-09T04:59:09.577Z,100.00
2023-10-09T05:01:46.714Z,100.00
2023-10-09T05:04:40.744Z,100.00
2023-10-09T05:07:23.863Z,100.00
2023-10-09T05:10:16.045Z,100.00
2023-10-09T05:12:48.207Z,100.00
2023-10-09T05:15:19.375Z,100.00
2023-10-09T05:17:57.770Z,100.00
2023-10-09T05:20:49.307Z,100.00
2023-10-09T05:23:27.418Z,100.00
2023-10-09T05:26:20.646Z,100.00
2023-10-09T05:28:50.987Z,100.00
2023-10-09T05:31:33.624Z,100.00
2023-10-09T05:34:04.641Z,100.00
2023-10-09T05:36:36.871Z,100.00
2023-10-09T05:39:31.059Z,100.00
2023-10-09T05:42:09.340Z,100.00
2023-10-09T05:44:52.037Z,100.00
2023-10-09T05:47:54.529Z,100.00
2023-10-09T05:50:37.472Z,100.00
2023-10-09T05:53:27.831Z,100.00
2023-10-09T05:56:10.482Z,100.00
2023-10-09T05:58:55.821Z,100.00
2023-10-09T06:01:44.017Z,100.00
2023-10-09T06:04:20.541Z,100.00
2023-10-09T06:06:58.081Z,100.00
2023-10-09T06:09:51.480Z,100.00
2023-10-09T06:12:35.435Z,100.00
2023-10-09T06:15:22.937Z,100.00
2023-10-09T06:18:01.368Z,100.00
2023-10-09T06:20:46.837Z,100.00
2023-10-09T06:23:39.926Z,100.00
2023-10-09T06:26:25.379Z,100.00
2023-10-09T06:29:15.869Z,100.00
2023-10-09T06:32:23.886Z,100.00
2023-10-09T06:34:53.963Z,100.00
2023-10-09T06:37:38.217Z,100.00
2023-10-09T06:40:26.316Z,100.00
2023-10-09T06:42:56.650Z,100.00
2023-10-09T06:45:45.260Z,100.00
2023-10-09T06:48:36.424Z,100.00
2023-10-09T06:51:09.244Z,100.00
2023-10-09T06:53:57.906Z,100.00
2023-10-09T06:56:50.185Z,100.00
2023-10-09T06:59:22.540Z,100.00
2023-10-09T07:02:22.277Z,100.00
2023-10-09T07:04:56.202Z,100.00
2023-10-09T07:07:26.736Z,100.00
2023-10-09T07:10:09.724Z,100.00
2023-10-09T07:12:44.312Z,100.00
2023-10-09T07:15:28.299Z,100.00
2023-10-09T07:18:18.620Z,100.00
2023-10-09T07:21:11.744Z,100.00
2023-10-09T07:23:49.704Z,100.00
2023-10-09T07:26:24.776Z,100.00
2023-10-09T07:29:02.165Z,100.00
2023-10-09T07:31:41.388Z,100.00
2023-10-09T07:34:23.995Z,100.00
2023-10-09T07:36:58.132Z,100.00
2023-10-09T07:39:35.902Z,100.00
2023-10-09T07:42:28.565Z,100.00
2023-10-09T07:45:13.053Z,100.00
2023-10-09T07:47:55.709Z,100.00
2023-10-09T07:50:31.586Z,100.00
2023-10-09T07:53:16.653Z,100.00
2023-10-09T07:55:55.573Z,100.00
2023-10-09T07:58:28.886Z,100.00
2023-10-09T08:01:17.316Z,100.00
2023-10-09T08:03:58.624Z,100.00
2023-10-09T08:06:41.869Z,100.00
2023-10-09T08:09:42.653Z,100.00
2023-10-09T08:12:39.404Z,100.00
2023-10-09T08:15:23.243Z,100.00
2023-10-09T08:18:00.499Z,100.00
2023-10-09T08:20:46.915Z,100.00
2023-10-09T08:23:23.537Z,97.44
2023-10-09T08:26:13.816Z,95.38
2023-10-09T08:28:44.189Z,90.01
2023-10-09T08:31:36.112Z,87.31
2023-10-09T08:36:42.329Z,75.39
2023-10-09T08:39:26.558Z,73.68
2023-10-09T08:42:03.910Z,68.51
2023-10-09T08:44:36.719Z,71.27
2023-10-09T08:47:08.767Z,66.86
2023-10-09T08:49:40.405Z,64.46
2023-10-09T08:52:12.239Z,62.77
2023-10-09T08:54:42.864Z,61.14
2023-10-09T08:57:20.520Z,69.17
2023-10-09T08:59:50.827Z,73.76
2023-10-09T09:02:22.997Z,75.29
2023-10-09T09:04:54.126Z,75.33
2023-10-09T09:07:33.189Z,74.59
2023-10-09T09:10:19.019Z,72.11
2023-10-09T09:12:54.785Z,73.03
2023-10-09T09:15:28.214Z,69.87
2023-10-09T09:18:10.741Z,70.87
2023-10-09T09:20:45.786Z,69.45
2023-10-09T09:23:17.952Z,64.90
2023-10-09T09:26:00.137Z,62.36
2023-10-09T09:28:40.393Z,60.49
2023-10-09T09:31:15.202Z,60.86
2023-10-09T09:33:45.749Z,59.31
2023-10-09T09:36:15.973Z,57.59
2023-10-09T09:38:49.457Z,56.31
2023-10-09T09:41:25.627Z,53.91
2023-10-09T09:44:01.823Z,51.04
2023-10-09T09:46:38.460Z,48.82
2023-10-09T09:49:18.034Z,47.61
2023-10-09T09:51:48.642Z,46.43
2023-10-09T09:54:25.779Z,45.93
2023-10-09T09:57:01.823Z,45.56
2023-10-09T09:59:36.781Z,45.18
2023-10-09T10:02:10.471Z,46.49
2023-10-09T10:04:50.936Z,46.67
2023-10-09T10:07:25.744Z,46.16
2023-10-09T10:09:59.096Z,46.03
2023-10-09T10:13:04.698Z,44.43
2023-10-09T10:16:13.311Z,43.33
2023-10-09T10:19:12.780Z,43.31
2023-10-09T10:21:50.037Z,43.36
2023-10-09T10:24:59.933Z,44.97
2023-10-09T10:27:34.349Z,45.21
2023-10-09T10:30:38.042Z,45.23
2023-10-09T10:33:17.431Z,44.87
2023-10-09T10:35:54.343Z,45.03
2023-10-09T10:38:50.970Z,44.42
2023-10-09T10:41:23.880Z,43.78
2023-10-09T10:44:23.741Z,43.41
2023-10-09T10:46:55.860Z,43.65
2023-10-09T10:49:37.888Z,43.99
2023-10-09T10:52:20.111Z,43.50
2023-10-09T10:55:07.008Z,44.62
2023-10-09T10:57:55.683Z,44.27
2023-10-09T11:00:38.743Z,47.15
2023-10-09T11:03:24.558Z,48.38
2023-10-09T11:05:57.737Z,48.10
2023-10-09T11:08:34.069Z,48.51
2023-10-09T11:11:32.646Z,48.67
2023-10-09T11:14:16.706Z,49.34
2023-10-09T11:16:48.840Z,50.19
2023-10-09T11:19:33.174Z,50.60
2023-10-09T11:22:20.714Z,50.62
2023-10-09T11:25:12.927Z,50.10
2023-10-09T11:27:51.884Z,49.08
2023-10-09T11:30:34.185Z,48.39
2023-10-09T11:33:15.678Z,47.42
2023-10-09T11:35:59.802Z,47.57
2023-10-09T11:38:38.030Z,47.00
2023-10-09T11:41:24.556Z,46.54
2023-10-09T11:43:54.461Z,46.41
2023-10-09T11:46:50.062Z,45.95
2023-10-09T11:49:35.895Z,46.99
2023-10-09T11:52:25.122Z,48.60
2023-10-09T11:54:57.916Z,50.56
2023-10-09T11:57:32.004Z,52.54
2023-10-09T12:00:07.763Z,53.94
2023-10-09T12:02:45.526Z,54.91
2023-10-09T12:05:18.518Z,57.67
2023-10-09T12:07:52.534Z,64.55
2023-10-09T12:10:28.380Z,68.18
2023-10-09T12:12:59.675Z,64.47
2023-10-09T12:15:38.397Z,57.16
2023-10-09T12:18:16.426Z,51.68
2023-10-09T12:20:52.196Z,49.90
2023-10-09T12:23:29.247Z,47.83
2023-10-09T12:26:03.312Z,46.92
2023-10-09T12:28:34.485Z,44.81
2023-10-09T12:31:05.088Z,41.96
2023-10-09T12:33:40.960Z,40.76
2023-10-09T12:36:21.612Z,39.87
2023-10-09T12:38:54.521Z,39.16
2023-10-09T12:41:30.023Z,38.51
2023-10-09T12:44:01.439Z,37.81
2023-10-09T12:46:39.342Z,38.35
2023-10-09T12:49:10.085Z,38.31
2023-10-09T12:51:41.637Z,39.33
2023-10-09T12:54:12.240Z,39.63
2023-10-09T12:56:49.867Z,41.31
2023-10-09T12:59:22.218Z,41.08
2023-10-09T13:01:54.121Z,41.66
2023-10-09T13:04:33.564Z,41.25
2023-10-09T13:07:07.436Z,41.27
2023-10-09T13:09:44.471Z,42.56
2023-10-09T13:12:20.218Z,43.65
2023-10-09T13:14:51.529Z,44.57
2023-10-09T13:17:23.350Z,44.73
2023-10-09T13:19:53.708Z,44.15
2023-10-09T13:22:24.318Z,44.77
2023-10-09T13:25:04.896Z,46.21
2023-10-09T13:27:39.640Z,45.90
2023-10-09T13:30:23.139Z,45.84
2023-10-09T13:32:55.079Z,44.15
2023-10-09T13:35:38.957Z,45.30
2023-10-09T13:38:11.441Z,47.40
2023-10-09T13:40:41.790Z,46.56
2023-10-09T13:43:18.392Z,43.87
2023-10-09T13:45:51.661Z,43.02
2023-10-09T13:48:24.136Z,39.42
2023-10-09T13:51:08.316Z,39.41
2023-10-09T13:53:46.091Z,38.75
2023-10-09T13:56:22.528Z,38.25
2023-10-09T13:58:56.920Z,36.58
2023-10-09T14:01:35.156Z,35.76
2023-10-09T14:04:07.540Z,33.89
2023-10-09T14:06:38.531Z,31.95
2023-10-09T14:09:10.971Z,31.54
2023-10-09T14:11:45.475Z,31.59
2023-10-09T14:14:18.459Z,32.09
2023-10-09T14:16:48.828Z,32.58
2023-10-09T14:19:22.390Z,32.96
2023-10-09T14:21:52.743Z,33.01
2023-10-09T14:24:27.641Z,32.79
2023-10-09T14:26:58.652Z,32.67
2023-10-09T14:29:32.346Z,32.61
2023-10-09T14:32:07.433Z,33.31
2023-10-09T14:34:40.829Z,32.21
2023-10-09T14:37:13.261Z,32.75
2023-10-09T14:39:43.636Z,33.07
2023-10-09T14:42:14.204Z,32.96
2023-10-09T14:44:49.080Z,34.03
2023-10-09T14:47:19.922Z,34.39
2023-10-09T14:49:55.331Z,34.25
2023-10-09T14:52:25.638Z,34.50
2023-10-09T14:54:55.940Z,34.45
2023-10-09T14:57:26.350Z,34.61
2023-10-09T15:00:00.661Z,35.06
2023-10-09T15:02:33.138Z,35.14
2023-10-09T15:05:05.582Z,36.62
2023-10-09T15:07:40.182Z,36.80
2023-10-09T15:10:16.505Z,36.63
2023-10-09T15:12:50.025Z,36.63
2023-10-09T15:15:26.947Z,36.81
2023-10-09T15:17:57.287Z,36.79
2023-10-09T15:20:28.381Z,37.01
2023-10-09T15:22:58.698Z,37.00
2023-10-09T15:25:28.986Z,37.41
2023-10-09T15:27:59.242Z,39.37
2023-10-09T15:30:32.798Z,41.21
2023-10-09T15:33:03.075Z,41.39
2023-10-09T15:35:35.099Z,43.12
2023-10-09T15:38:07.109Z,43.64
2023-10-09T15:40:38.285Z,45.20
2023-10-09T15:43:08.914Z,44.69
2023-10-09T15:45:49.501Z,44.97
2023-10-09T15:48:23.168Z,46.35
2023-10-09T15:50:53.642Z,46.74
2023-10-09T15:53:25.658Z,46.30
2023-10-09T15:55:58.789Z,47.15
2023-10-09T15:58:30.418Z,48.70
2023-10-09T16:01:04.076Z,46.99
2023-10-09T16:03:34.828Z,47.50
2023-10-09T16:06:06.356Z,47.92
2023-10-09T16:08:38.003Z,49.88
2023-10-09T16:11:08.809Z,51.05
2023-10-09T16:13:39.969Z,50.73
2023-10-09T16:16:14.775Z,52.21
2023-10-09T16:18:45.200Z,50.11
2023-10-09T16:21:15.833Z,50.85
2023-10-09T16:23:46.204Z,51.52
2023-10-09T16:26:17.821Z,54.95
2023-10-09T16:28:49.780Z,57.20
2023-10-09T16:31:24.705Z,53.62
2023-10-09T16:33:55.066Z,51.81
2023-10-09T16:36:25.413Z,55.43
2023-10-09T16:38:56.849Z,53.68
2023-10-09T16:41:28.127Z,59.11
2023-10-09T16:44:00.266Z,55.46
2023-10-09T16:46:33.338Z,58.14
2023-10-09T16:49:05.787Z,59.46
2023-10-09T16:51:36.189Z,57.72
2023-10-09T16:54:06.794Z,58.72
2023-10-09T16:56:37.716Z,58.36
2023-10-09T16:59:15.047Z,57.93
2023-10-09T17:01:48.910Z,58.94
2023-10-09T17:04:24.744Z,59.01
2023-10-09T17:06:56.928Z,58.26
2023-10-09T17:09:28.732Z,57.81
2023-10-09T17:11:59.039Z,58.69
2023-10-09T17:14:30.020Z,59.58
2023-10-09T17:17:09.614Z,60.51
2023-10-09T17:19:42.773Z,63.02
2023-10-09T17:22:14.660Z,62.30
2023-10-09T17:24:46.033Z,66.11
2023-10-09T17:27:19.358Z,65.30
2023-10-09T17:29:49.802Z,68.52
2023-10-09T17:32:22.729Z,70.24
2023-10-09T17:34:54.928Z,70.79
2023-10-09T17:37:25.649Z,74.38
2023-10-09T17:39:55.835Z,73.20
2023-10-09T17:42:26.247Z,75.83
2023-10-09T17:44:56.868Z,75.22
2023-10-09T17:47:29.951Z,79.46
2023-10-09T17:50:00.407Z,78.10
2023-10-09T17:52:31.055Z,78.31
2023-10-09T17:55:02.229Z,80.30
2023-10-09T17:57:32.516Z,83.93
2023-10-09T18:00:04.949Z,85.85
2023-10-09T18:02:41.386Z,86.86
2023-10-09T18:05:12.265Z,88.98
2023-10-09T18:07:44.793Z,89.50
2023-10-09T18:10:17.717Z,90.55
2023-10-09T18:12:50.857Z,88.90
2023-10-09T18:15:22.074Z,89.18
2023-10-09T18:17:55.044Z,95.24
2023-10-09T18:20:25.496Z,94.69
2023-10-09T18:22:55.859Z,94.20
2023-10-09T18:25:26.181Z,92.22
2023-10-09T18:27:57.761Z,94.84
2023-10-09T18:30:29.306Z,91.42
2023-10-09T18:33:02.483Z,91.54
2023-10-09T18:35:33.224Z,94.54
2023-10-09T18:38:06.201Z,97.37
2023-10-09T18:40:37.421Z,98.09
2023-10-09T18:43:09.673Z,92.60
2023-10-09T18:45:44.016Z,92.43
2023-10-09T18:48:19.475Z,91.33
2023-10-09T18:50:49.880Z,90.84
2023-10-09T18:53:21.343Z,90.92
2023-10-09T18:55:52.277Z,91.24
2023-10-09T18:58:23.459Z,94.45
2023-10-09T19:00:59.991Z,93.11
2023-10-09T19:03:34.514Z,93.12
2023-10-09T19:06:11.426Z,93.98
2023-10-09T19:08:41.618Z,94.34
2023-10-09T19:11:14.446Z,94.17
2023-10-09T19:13:44.876Z,95.46
2023-10-09T19:16:15.710Z,97.29
2023-10-09T19:18:48.646Z,98.77
2023-10-09T19:21:20.175Z,100.00
2023-10-09T19:23:50.505Z,100.00
2023-10-09T19:26:20.921Z,100.00
2023-10-09T19:28:51.454Z,100.00
2023-10-09T19:31:23.269Z,100.00
2023-10-09T19:33:56.125Z,100.00
2023-10-09T19:36:28.404Z,100.00
2023-10-09T19:39:01.220Z,100.00
2023-10-09T19:41:32.497Z,100.00
2023-10-09T19:44:05.585Z,100.00
2023-10-09T19:46:39.449Z,100.00
2023-10-09T19:49:12.361Z,100.00
2023-10-09T19:51:44.261Z,100.00
2023-10-09T19:54:14.645Z,100.00
2023-10-09T19:56:46.749Z,100.00
2023-10-09T19:59:17.250Z,100.00
2023-10-09T20:01:49.328Z,100.00
2023-10-09T20:04:26.560Z,100.00
2023-10-09T20:06:57.316Z,100.00
2023-10-09T20:09:27.622Z,100.00
2023-10-09T20:11:58.722Z,100.00
2023-10-09T20:14:29.462Z,100.00
2023-10-09T20:17:00.692Z,100.00
2023-10-09T20:19:35.865Z,100.00
2023-10-09T20:22:07.104Z,100.00
2023-10-09T20:24:37.359Z,99.51
2023-10-09T20:27:09.906Z,100.00
2023-10-09T20:29:43.136Z,100.00
2023-10-09T20:32:15.416Z,100.00
2023-10-09T20:34:48.417Z,100.00
2023-10-09T20:37:18.657Z,100.00
2023-10-09T20:39:49.869Z,100.00
2023-10-09T20:42:22.724Z,100.00
2023-10-09T20:44:52.959Z,100.00
2023-10-09T20:47:27.369Z,100.00
2023-10-09T20:50:00.596Z,100.00
2023-10-09T20:52:30.974Z,100.00
2023-10-09T20:55:01.315Z,100.00
2023-10-09T20:57:31.600Z,100.00
2023-10-09T21:00:01.859Z,100.00
2023-10-09T21:02:32.176Z,100.00
2023-10-09T21:05:05.602Z,100.00
2023-10-09T21:07:36.728Z,100.00
2023-10-09T21:10:08.745Z,100.00
2023-10-09T21:12:39.623Z,100.00
2023-10-09T21:15:11.545Z,100.00
2023-10-09T21:17:42.321Z,100.00
2023-10-09T21:20:19.985Z,100.00
2023-10-09T21:22:55.818Z,100.00
2023-10-09T21:25:27.856Z,100.00
2023-10-09T21:27:58.524Z,100.00
2023-10-09T21:30:29.348Z,100.00
2023-10-09T21:32:59.948Z,100.00
2023-10-09T21:35:33.584Z,100.00
2023-10-09T21:38:03.939Z,100.00
2023-10-09T21:40:34.617Z,100.00
2023-10-09T21:43:08.278Z,100.00
2023-10-09T21:45:46.123Z,100.00
2023-10-09T21:48:17.620Z,100.00
2023-10-09T21:50:50.502Z,100.00
2023-10-09T21:53:21.058Z,100.00
2023-10-09T21:55:51.355Z,100.00
2023-10-09T21:58:21.628Z,100.00
2023-10-09T22:00:52.069Z,100.00
2023-10-09T22:03:22.904Z,100.00
2023-10-09T22:05:57.289Z,100.00
2023-10-09T22:08:28.080Z,100.00
2023-10-09T22:10:58.478Z,100.00
2023-10-09T22:13:28.747Z,100.00
2023-10-09T22:15:59.297Z,100.00
2023-10-09T22:18:31.440Z,100.00
2023-10-09T22:21:11.113Z,100.00
2023-10-09T22:23:47.130Z,100.00
2023-10-09T22:26:21.367Z,100.00
2023-10-09T22:28:52.042Z,100.00
2023-10-09T22:31:23.174Z,100.00
2023-10-09T22:33:55.618Z,100.00
2023-10-09T22:36:47.071Z,100.00
2023-10-09T22:39:28.531Z,100.00
2023-10-09T22:41:58.893Z,100.00
2023-10-09T22:44:33.935Z,100.00
2023-10-09T22:47:08.943Z,100.00
2023-10-09T22:49:42.942Z,100.00
2023-10-09T22:52:17.027Z,100.00
2023-10-09T22:54:50.296Z,100.00
2023-10-09T22:57:22.246Z,100.00
2023-10-09T23:00:00.787Z,100.00
2023-10-09T23:02:46.436Z,100.00
2023-10-09T23:05:19.064Z,100.00
2023-10-09T23:08:01.708Z,100.00
2023-10-09T23:10:33.338Z,100.00
2023-10-09T23:13:15.972Z,100.00
2023-10-09T23:15:50.982Z,100.00
2023-10-09T23:18:39.835Z,100.00
2023-10-09T23:21:22.298Z,100.00
2023-10-09T23:24:10.004Z,100.00
2023-10-09T23:26:53.635Z,100.00
2023-10-09T23:29:34.397Z,100.00
2023-10-09T23:32:19.907Z,100.00
2023-10-09T23:34:54.216Z,100.00
2023-10-09T23:37:34.861Z,100.00
2023-10-09T23:40:14.344Z,100.00
2023-10-09T23:42:58.904Z,100.00
2023-10-09T23:45:33.014Z,100.00
2023-10-09T23:48:12.837Z,100.00
2023-10-09T23:50:45.682Z,100.00
2023-10-09T23:53:17.599Z,100.00
2023-10-09T23:55:53.079Z,100.00
2023-10-09T23:58:23.823Z,100.00
